Time;durP1;ratioP1;P1;durP2;ratioP2;P2;SDS_P1;SDS_P2;PMS_P1;PMS_P2;Temp;Humidity;BMP_temperature;BMP_pressure;BME280_temperature;BME280_humidity;BME280_pressure;Samples;Min_cycle;Max_cycle;Signal;HPM_P1;HPM_P2
2024/04/21 04:07:09;;;;;;;0.40;0.40;;;5.20;99.90;;;;;;5677020;21;20345;-66
2024/04/21 04:09:35;;;;;;;0.30;0.30;;;5.30;99.90;;;;;;5278312;27;20699;-65
2024/04/21 04:12:04;;;;;;;0.40;0.40;;;5.30;99.90;;;;;;5278808;27;20218;-66
2024/04/21 04:14:29;;;;;;;0.30;0.30;;;5.40;99.90;;;;;;5278755;27;20222;-66
2024/04/21 04:16:55;;;;;;;0.30;0.30;;;5.50;99.90;;;;;;5278043;27;20318;-66
2024/04/21 04:19:23;;;;;;;0.30;0.30;;;5.50;99.90;;;;;;5278753;27;20215;-66
2024/04/21 04:21:49;;;;;;;0.40;0.40;;;5.50;99.90;;;;;;5278508;27;20548;-66
2024/04/21 04:24:14;;;;;;;0.30;0.30;;;5.40;99.90;;;;;;5278576;27;20266;-66
2024/04/21 04:26:40;;;;;;;0.30;0.30;;;5.40;99.90;;;;;;5277904;27;20230;-66
2024/04/21 04:29:05;;;;;;;0.50;0.50;;;5.40;99.90;;;;;;5278173;27;20229;-66
2024/04/21 04:31:31;;;;;;;0.30;0.30;;;5.50;99.90;;;;;;5278090;27;20219;-66
2024/04/21 04:33:56;;;;;;;0.30;0.30;;;5.50;99.90;;;;;;5277975;27;20230;-66
2024/04/21 04:36:22;;;;;;;0.30;0.30;;;5.50;99.90;;;;;;5276951;27;20317;-66
2024/04/21 04:38:47;;;;;;;0.40;0.40;;;5.40;99.90;;;;;;5278231;27;20222;-66
2024/04/21 04:41:13;;;;;;;0.40;0.40;;;5.30;99.90;;;;;;5278191;27;20218;-66
2024/04/21 04:43:39;;;;;;;0.30;0.30;;;5.30;99.90;;;;;;5277871;27;20275;-66
2024/04/21 04:46:04;;;;;;;0.30;0.30;;;5.20;99.90;;;;;;5277440;27;20251;-66
2024/04/21 04:48:30;;;;;;;0.83;0.83;;;5.20;99.90;;;;;;5277636;27;20284;-67
2024/04/21 04:50:55;;;;;;;0.30;0.30;;;5.20;99.90;;;;;;5277786;27;20281;-66
2024/04/21 04:53:21;;;;;;;0.50;0.50;;;5.20;99.90;;;;;;5277762;27;20268;-66
2024/04/21 04:55:49;;;;;;;0.40;0.40;;;5.30;99.90;;;;;;5277380;27;20262;-66
2024/04/21 04:58:15;;;;;;;0.40;0.40;;;5.40;99.90;;;;;;5277652;27;20670;-66
2024/04/21 05:00:40;;;;;;;0.30;0.30;;;5.40;99.90;;;;;;5277602;27;20219;-66
2024/04/21 05:03:09;;;;;;;0.73;0.73;;;5.30;99.90;;;;;;5277741;27;20227;-66
2024/04/21 05:05:34;;;;;;;0.40;0.40;;;5.30;99.90;;;;;;5277487;27;20217;-66
2024/04/21 05:08:06;;;;;;;0.30;0.30;;;5.30;99.90;;;;;;5277657;27;20561;-66
2024/04/21 05:10:32;;;;;;;0.50;0.50;;;5.30;99.90;;;;;;5278494;27;20227;-66
2024/04/21 05:12:58;;;;;;;0.40;0.40;;;5.20;99.90;;;;;;5279943;27;20223;-66
2024/04/21 05:15:25;;;;;;;0.37;0.37;;;5.20;99.90;;;;;;5280430;27;20234;-66
2024/04/21 05:17:51;;;;;;;0.40;0.40;;;5.10;99.90;;;;;;5280833;27;20543;-66
2024/04/21 05:20:16;;;;;;;0.30;0.30;;;5.10;99.90;;;;;;5280815;27;20326;-65
2024/04/21 05:22:42;;;;;;;0.40;0.40;;;5.20;99.90;;;;;;5280677;27;20225;-66
2024/04/21 05:25:07;;;;;;;0.30;0.30;;;5.20;99.90;;;;;;5280332;27;20540;-66
2024/04/21 05:27:33;;;;;;;0.40;0.40;;;5.20;99.90;;;;;;5278642;27;20242;-65
2024/04/21 05:29:58;;;;;;;0.30;0.30;;;5.20;99.90;;;;;;5280681;27;20222;-65
2024/04/21 05:32:24;;;;;;;0.40;0.40;;;5.20;99.90;;;;;;5280575;27;20329;-65
2024/04/21 05:34:50;;;;;;;0.30;0.30;;;5.20;99.90;;;;;;5280699;27;20219;-66
2024/04/21 05:37:15;;;;;;;0.30;0.30;;;5.20;99.90;;;;;;5280289;27;20300;-65
2024/04/21 05:39:41;;;;;;;0.40;0.40;;;5.20;99.90;;;;;;5280726;27;20330;-66
2024/04/21 05:42:07;;;;;;;0.47;0.47;;;5.20;99.90;;;;;;5280486;27;20275;-66
2024/04/21 05:44:32;;;;;;;0.40;0.40;;;5.20;99.90;;;;;;5280170;27;20265;-65
2024/04/21 05:46:58;;;;;;;0.40;0.40;;;5.20;99.90;;;;;;5278441;27;20242;-65
2024/04/21 05:49:26;;;;;;;0.30;0.30;;;5.20;99.90;;;;;;5280447;27;20555;-66
2024/04/21 05:51:52;;;;;;;0.30;0.30;;;5.30;99.90;;;;;;5280513;27;20250;-66
2024/04/21 05:54:17;;;;;;;0.40;0.40;;;5.30;99.90;;;;;;5280288;27;20225;-66
2024/04/21 05:56:43;;;;;;;0.30;0.30;;;5.30;99.90;;;;;;5279860;27;20232;-66
2024/04/21 05:59:09;;;;;;;0.40;0.40;;;5.30;99.90;;;;;;5280304;27;20221;-66
2024/04/21 06:01:34;;;;;;;0.30;0.30;;;5.30;99.90;;;;;;5280670;27;20219;-66
2024/04/21 06:04:00;;;;;;;0.30;0.30;;;5.30;99.90;;;;;;5280296;27;20223;-66
2024/04/21 06:06:25;;;;;;;0.40;0.40;;;5.40;99.90;;;;;;5279941;27;20231;-66
2024/04/21 06:08:51;;;;;;;0.37;0.37;;;5.40;99.90;;;;;;5278319;27;20250;-66
2024/04/21 06:11:17;;;;;;;0.30;0.30;;;5.40;99.90;;;;;;5280068;27;20305;-67
2024/04/21 06:13:42;;;;;;;0.43;0.43;;;5.50;99.90;;;;;;5279888;27;20219;-66
2024/04/21 06:16:08;;;;;;;0.40;0.40;;;5.60;99.90;;;;;;5279517;27;20469;-68
2024/04/21 06:18:33;;;;;;;0.50;0.50;;;5.60;99.90;;;;;;5279737;27;20337;-66
2024/04/21 06:20:59;;;;;;;0.37;0.37;;;5.70;99.90;;;;;;5279871;27;20657;-66
2024/04/21 06:23:25;;;;;;;0.40;0.40;;;5.80;99.90;;;;;;5279327;27;20272;-66
2024/04/21 06:25:50;;;;;;;0.37;0.37;;;5.80;99.90;;;;;;5278757;27;20238;-66
2024/04/21 06:28:16;;;;;;;0.30;0.30;;;5.80;99.90;;;;;;5279410;27;20233;-66
2024/04/21 06:30:42;;;;;;;0.30;0.30;;;5.90;99.90;;;;;;5279650;27;20265;-67
2024/04/21 06:33:07;;;;;;;0.30;0.30;;;6.00;99.90;;;;;;5279534;27;20613;-65
2024/04/21 06:35:36;;;;;;;0.30;0.30;;;6.00;99.90;;;;;;5279641;27;20449;-65
2024/04/21 06:38:02;;;;;;;0.40;0.40;;;6.00;99.90;;;;;;5277790;27;20229;-68
2024/04/21 06:40:28;;;;;;;0.40;0.40;;;6.00;99.90;;;;;;5279712;27;20219;-66
2024/04/21 06:42:53;;;;;;;0.30;0.30;;;6.00;99.90;;;;;;5279433;27;20260;-66
2024/04/21 06:45:19;;;;;;;0.40;0.40;;;6.10;99.90;;;;;;5278970;27;20259;-65
2024/04/21 06:47:47;;;;;;;0.30;0.30;;;6.00;99.90;;;;;;5278891;27;20303;-67
2024/04/21 06:50:13;;;;;;;0.30;0.30;;;6.00;99.90;;;;;;5278993;27;20238;-66
2024/04/21 06:52:39;;;;;;;0.30;0.30;;;6.00;99.90;;;;;;5279190;27;20321;-66
2024/04/21 06:55:08;;;;;;;0.40;0.40;;;6.00;99.90;;;;;;5279169;27;20545;-66
2024/04/21 06:57:33;;;;;;;0.30;0.30;;;6.10;99.90;;;;;;5279146;27;20514;-66
2024/04/21 07:00:21;;;;;;;0.38;0.38;;;6.20;99.90;;;;;;5435170;26;20412;-66
2024/04/21 07:02:47;;;;;;;0.30;0.30;;;6.20;99.90;;;;;;5435430;26;20260;-65
2024/04/21 07:05:12;;;;;;;0.33;0.33;;;6.20;99.90;;;;;;5435320;26;20217;-67
2024/04/21 07:07:38;;;;;;;0.30;0.30;;;6.20;99.90;;;;;;5400806;26;20524;-66
2024/04/21 07:10:04;;;;;;;0.30;0.30;;;6.20;99.90;;;;;;5399673;26;20250;-66
2024/04/21 07:12:29;;;;;;;0.30;0.30;;;6.20;99.90;;;;;;5399880;26;20289;-66
2024/04/21 07:14:55;;;;;;;0.30;0.30;;;6.10;99.90;;;;;;5399435;26;20446;-66
2024/04/21 07:17:20;;;;;;;0.30;0.30;;;6.10;99.90;;;;;;5399442;26;20719;-67
2024/04/21 07:19:47;;;;;;;0.40;0.40;;;6.10;99.90;;;;;;5399494;26;20543;-66
2024/04/21 07:22:12;;;;;;;0.30;0.30;;;6.20;99.90;;;;;;5399550;26;20704;-66
2024/04/21 07:24:38;;;;;;;0.30;0.30;;;6.30;99.90;;;;;;5399182;26;20320;-66
2024/04/21 07:27:04;;;;;;;0.30;0.30;;;6.40;99.90;;;;;;5397573;26;20633;-66
2024/04/21 07:29:29;;;;;;;0.30;0.30;;;6.40;99.90;;;;;;5399633;26;20286;-66
2024/04/21 07:31:55;;;;;;;0.40;0.40;;;6.40;99.90;;;;;;5399501;26;20230;-66
2024/04/21 07:34:21;;;;;;;0.30;0.30;;;6.50;99.90;;;;;;5397927;26;20215;-66
2024/04/21 07:36:47;;;;;;;0.30;0.30;;;6.50;99.90;;;;;;5399264;26;20529;-67
2024/04/21 07:39:14;;;;;;;0.30;0.30;;;6.50;99.90;;;;;;5399148;26;20731;-66
2024/04/21 07:41:40;;;;;;;0.30;0.30;;;6.70;99.90;;;;;;5399198;26;20513;-66
2024/04/21 07:44:06;;;;;;;0.40;0.40;;;6.70;99.90;;;;;;5399368;26;20746;-67
2024/04/21 07:46:32;;;;;;;0.30;0.30;;;6.80;99.90;;;;;;5398822;26;20270;-66
2024/04/21 07:48:58;;;;;;;0.40;0.40;;;6.90;99.90;;;;;;5399345;26;20231;-67
2024/04/21 07:51:24;;;;;;;0.30;0.30;;;7.00;99.90;;;;;;5399439;26;20231;-66
2024/04/21 07:53:49;;;;;;;0.30;0.30;;;7.20;99.90;;;;;;5399377;26;20216;-66
2024/04/21 07:56:15;;;;;;;0.30;0.30;;;7.30;99.90;;;;;;5398758;26;20253;-65
2024/04/21 07:58:41;;;;;;;0.30;0.30;;;7.20;99.90;;;;;;5398882;26;20274;-66
2024/04/21 08:01:07;;;;;;;0.30;0.30;;;7.20;99.90;;;;;;5399315;26;20223;-65
2024/04/21 08:03:33;;;;;;;0.30;0.30;;;7.00;99.90;;;;;;5400128;26;20282;-67
2024/04/21 08:06:02;;;;;;;0.30;0.30;;;7.00;99.90;;;;;;5398597;26;20281;-65
2024/04/21 08:08:27;;;;;;;0.30;0.30;;;7.00;99.90;;;;;;5399016;26;20231;-65
2024/04/21 08:10:57;;;;;;;0.30;0.30;;;7.00;99.90;;;;;;5388077;26;20644;-65
2024/04/21 08:13:23;;;;;;;0.30;0.30;;;6.90;99.90;;;;;;5383831;26;20220;-67
2024/04/21 08:15:49;;;;;;;0.30;0.30;;;6.80;99.90;;;;;;5383484;26;20562;-66
2024/04/21 08:18:14;;;;;;;0.30;0.30;;;6.70;99.90;;;;;;5383896;26;20270;-65
2024/04/21 08:20:40;;;;;;;0.30;0.30;;;6.60;99.90;;;;;;5383280;26;20238;-66
2024/04/21 08:23:06;;;;;;;0.30;0.30;;;6.50;99.90;;;;;;5383395;26;20216;-66
2024/04/21 08:25:31;;;;;;;0.30;0.30;;;6.30;99.90;;;;;;5383121;26;20576;-65
2024/04/21 08:27:57;;;;;;;0.40;0.40;;;6.30;99.90;;;;;;5383400;26;20261;-66
2024/04/21 08:30:22;;;;;;;0.30;0.30;;;6.30;99.90;;;;;;5383286;26;20231;-66
2024/04/21 08:32:48;;;;;;;0.33;0.33;;;6.40;99.90;;;;;;5383265;26;20694;-66
2024/04/21 08:35:14;;;;;;;0.40;0.40;;;6.40;99.90;;;;;;5383072;26;20232;-66
2024/04/21 08:37:39;;;;;;;0.30;0.30;;;6.50;99.90;;;;;;5383331;26;20232;-66
2024/04/21 08:40:06;;;;;;;0.43;0.43;;;6.60;99.90;;;;;;5381762;26;20250;-66
2024/04/21 08:42:38;;;;;;;0.30;0.30;;;6.70;99.90;;;;;;5383807;26;20828;-65
2024/04/21 08:45:07;;;;;;;0.30;0.30;;;6.80;99.90;;;;;;5383126;26;20215;-64
2024/04/21 08:47:34;;;;;;;0.40;0.40;;;6.90;99.90;;;;;;5383305;26;20239;-66
2024/04/21 08:50:01;;;;;;;0.30;0.30;;;6.90;99.90;;;;;;5383127;26;20612;-66
2024/04/21 08:52:32;;;;;;;0.40;0.40;;;7.00;99.90;;;;;;5383200;26;20219;-65
2024/04/21 08:54:58;;;;;;;0.30;0.30;;;7.00;99.90;;;;;;5383000;26;20321;-66
2024/04/21 08:57:28;;;;;;;0.30;0.30;;;7.10;99.90;;;;;;5382950;26;20321;-67
2024/04/21 09:00:02;;;;;;;0.30;0.30;;;7.10;99.90;;;;;;5382967;26;20259;-66
2024/04/21 09:02:29;;;;;;;0.30;0.30;;;7.10;99.90;;;;;;5383558;26;20226;-67
2024/04/21 09:04:56;;;;;;;0.30;0.30;;;7.00;99.90;;;;;;5383055;26;20423;-66
2024/04/21 09:07:24;;;;;;;0.40;0.40;;;7.00;99.90;;;;;;5383502;26;20231;-65
2024/04/21 09:09:49;;;;;;;0.30;0.30;;;7.20;99.90;;;;;;5384061;26;20265;-65
2024/04/21 09:12:15;;;;;;;0.30;0.30;;;7.20;99.90;;;;;;5385008;26;20220;-65
2024/04/21 09:14:50;;;;;;;0.30;0.30;;;7.30;99.90;;;;;;5383043;26;20263;-65
2024/04/21 09:17:15;;;;;;;0.30;0.30;;;7.50;99.90;;;;;;5382898;26;20569;-66
2024/04/21 09:19:41;;;;;;;0.30;0.30;;;7.70;99.90;;;;;;5382761;26;20278;-66
2024/04/21 09:22:06;;;;;;;0.30;0.30;;;7.90;99.90;;;;;;5379897;26;20223;-66
2024/04/21 09:24:32;;;;;;;0.30;0.30;;;8.10;99.90;;;;;;5382809;26;20241;-67
2024/04/21 09:26:58;;;;;;;0.30;0.30;;;8.30;99.90;;;;;;5382929;26;20581;-65
2024/04/21 09:29:23;;;;;;;0.33;0.33;;;8.50;99.90;;;;;;5382704;26;20236;-65
2024/04/21 09:31:50;;;;;;;0.30;0.30;;;8.70;99.90;;;;;;5382602;26;20219;-66
2024/04/21 09:34:18;;;;;;;0.30;0.30;;;9.00;99.90;;;;;;5382404;26;20223;-65
2024/04/21 09:36:44;;;;;;;0.30;0.30;;;9.20;99.90;;;;;;5382378;26;20467;-66
2024/04/21 09:39:13;;;;;;;0.30;0.30;;;9.10;99.90;;;;;;5382255;26;20509;-66
2024/04/21 09:41:40;;;;;;;0.30;0.30;;;9.30;99.90;;;;;;5383512;26;20456;-65
2024/04/21 09:44:07;;;;;;;0.33;0.33;;;9.40;99.90;;;;;;5382724;26;20521;-66
2024/04/21 09:46:34;;;;;;;0.30;0.30;;;9.20;99.90;;;;;;5382102;26;20473;-66
2024/04/21 09:49:03;;;;;;;0.30;0.30;;;9.20;99.90;;;;;;5382290;26;20464;-66
2024/04/21 09:51:31;;;;;;;0.30;0.30;;;9.40;99.90;;;;;;5382423;26;20833;-66
2024/04/21 09:53:57;;;;;;;0.30;0.30;;;9.70;99.90;;;;;;5380544;26;20434;-66
2024/04/21 09:56:33;;;;;;;0.33;0.33;;;10.30;99.90;;;;;;5382260;26;20502;-67
2024/04/21 09:59:00;;;;;;;0.30;0.30;;;10.90;99.90;;;;;;5382268;26;20626;-67
2024/04/21 10:01:32;;;;;;;0.30;0.30;;;11.40;98.80;;;;;;5382260;26;20835;-67
2024/04/21 10:04:02;;;;;;;0.30;0.30;;;11.70;95.90;;;;;;5382136;26;20499;-67
2024/04/21 10:06:29;;;;;;;0.30;0.20;;;11.60;94.00;;;;;;5382095;26;20438;-67
2024/04/21 10:09:00;;;;;;;0.30;0.30;;;11.40;95.20;;;;;;5382136;26;20500;-67
2024/04/21 10:11:26;;;;;;;0.30;0.30;;;11.00;95.40;;;;;;5382358;26;20421;-67
2024/04/21 10:13:53;;;;;;;0.30;0.30;;;11.20;97.20;;;;;;5381990;26;20582;-68
2024/04/21 10:16:20;;;;;;;0.30;0.30;;;11.70;97.70;;;;;;5382002;26;20224;-67
2024/04/21 10:18:46;;;;;;;0.30;0.30;;;12.20;96.90;;;;;;5382092;26;20464;-66
2024/04/21 10:21:11;;;;;;;0.43;0.43;;;12.30;95.70;;;;;;5383083;26;20954;-66
2024/04/21 10:23:39;;;;;;;0.30;0.30;;;12.20;95.20;;;;;;5381943;26;20216;-66
2024/04/21 10:26:04;;;;;;;0.30;0.20;;;11.90;94.70;;;;;;5381790;26;20501;-67
2024/04/21 10:28:30;;;;;;;0.30;0.30;;;11.60;95.80;;;;;;5382035;26;20452;-68
2024/04/21 10:31:09;;;;;;;0.33;0.33;;;11.50;95.10;;;;;;5381810;26;20738;-68
2024/04/21 10:33:38;;;;;;;0.30;0.30;;;11.30;94.80;;;;;;5381357;26;20780;-68
2024/04/21 10:36:24;;;;;;;0.30;0.30;;;10.90;93.60;;;;;;5381328;26;20916;-66
2024/04/21 10:38:52;;;;;;;0.30;0.30;;;11.00;95.00;;;;;;5381416;26;20454;-68
2024/04/21 10:41:21;;;;;;;0.30;0.30;;;11.80;94.90;;;;;;5381638;26;20425;-67
2024/04/21 10:43:47;;;;;;;0.30;0.30;;;12.30;93.10;;;;;;5381729;26;20504;-68
2024/04/21 10:46:13;;;;;;;0.40;0.40;;;12.20;91.50;;;;;;5379662;26;20527;-68
2024/04/21 10:48:39;;;;;;;0.30;0.30;;;12.20;91.90;;;;;;5381622;26;20454;-68
2024/04/21 10:51:04;;;;;;;0.30;0.20;;;12.40;92.90;;;;;;5379994;26;20235;-68
2024/04/21 10:53:30;;;;;;;0.30;0.30;;;12.50;93.20;;;;;;5381883;26;20332;-68
2024/04/21 10:55:56;;;;;;;0.30;0.30;;;12.60;93.30;;;;;;5380822;26;20299;-68
2024/04/21 10:58:22;;;;;;;0.30;0.30;;;12.80;93.40;;;;;;5381480;26;20713;-68
2024/04/21 11:00:47;;;;;;;0.30;0.27;;;13.40;94.20;;;;;;5381793;26;20223;-68
2024/04/21 11:03:14;;;;;;;0.30;0.30;;;14.00;93.40;;;;;;5381278;26;20273;-68
2024/04/21 11:05:48;;;;;;;0.30;0.30;;;14.40;90.60;;;;;;5381189;26;21542;-67
2024/04/21 11:08:13;;;;;;;0.30;0.20;;;14.40;88.70;;;;;;5381405;26;20898;-67
2024/04/21 11:10:41;;;;;;;0.30;0.30;;;13.90;90.00;;;;;;5381166;26;20545;-67
2024/04/21 11:13:07;;;;;;;0.53;0.53;;;13.20;86.60;;;;;;5381212;26;20212;-66
2024/04/21 11:15:39;;;;;;;0.40;0.40;;;12.30;87.30;;;;;;5380732;26;20520;-67
2024/04/21 11:18:05;;;;;;;0.30;0.30;;;11.50;85.30;;;;;;5381656;26;20448;-67
2024/04/21 11:20:31;;;;;;;0.30;0.30;;;11.20;89.00;;;;;;5381641;26;20446;-68
2024/04/21 11:22:56;;;;;;;0.30;0.27;;;11.10;90.30;;;;;;5381315;26;20573;-67
2024/04/21 11:25:22;;;;;;;0.30;0.30;;;11.10;90.50;;;;;;5380673;26;20745;-68
2024/04/21 11:27:48;;;;;;;0.30;0.30;;;11.20;91.60;;;;;;5380893;26;20261;-67
2024/04/21 11:30:18;;;;;;;0.30;0.30;;;11.30;90.00;;;;;;5381089;26;20258;-68
2024/04/21 11:32:45;;;;;;;0.30;0.30;;;11.30;89.90;;;;;;5380804;26;20333;-67
2024/04/21 11:35:13;;;;;;;0.30;0.30;;;11.30;90.20;;;;;;5380611;26;20438;-68
2024/04/21 11:37:39;;;;;;;0.30;0.30;;;11.40;90.20;;;;;;5380910;26;20943;-67
2024/04/21 11:40:06;;;;;;;0.30;0.30;;;11.20;88.90;;;;;;5380777;26;20614;-67
2024/04/21 11:42:32;;;;;;;0.30;0.30;;;10.90;88.70;;;;;;5378889;26;20220;-67
2024/04/21 11:44:57;;;;;;;0.30;0.30;;;10.70;88.30;;;;;;5380759;26;20482;-66
2024/04/21 11:47:24;;;;;;;0.30;0.20;;;10.70;89.00;;;;;;5384196;26;20224;-67
2024/04/21 11:49:50;;;;;;;0.30;0.30;;;10.90;91.50;;;;;;5383959;26;20220;-67
2024/04/21 11:52:15;;;;;;;0.30;0.30;;;11.00;91.80;;;;;;5384214;26;20848;-67
2024/04/21 11:54:43;;;;;;;0.30;0.30;;;11.10;91.10;;;;;;5383891;26;20242;-67
2024/04/21 11:57:12;;;;;;;0.40;0.40;;;11.00;90.60;;;;;;5384947;26;20262;-67
2024/04/21 11:59:38;;;;;;;0.30;0.30;;;10.50;91.00;;;;;;5384119;26;20464;-66
2024/04/21 12:02:04;;;;;;;0.30;0.30;;;10.20;92.40;;;;;;5384025;26;20876;-67
2024/04/21 12:04:29;;;;;;;0.30;0.30;;;10.00;92.90;;;;;;5384173;26;20421;-66
2024/04/21 12:06:55;;;;;;;0.40;0.40;;;9.90;94.00;;;;;;5383625;26;20246;-67
2024/04/21 12:09:20;;;;;;;0.30;0.20;;;10.00;94.50;;;;;;5383916;26;20215;-67
2024/04/21 12:11:46;;;;;;;0.30;0.30;;;9.90;93.40;;;;;;5383987;26;20590;-67
2024/04/21 12:14:14;;;;;;;0.40;0.40;;;10.10;93.80;;;;;;5383768;26;20223;-66
2024/04/21 12:16:40;;;;;;;0.30;0.30;;;10.60;93.70;;;;;;5383321;26;20235;-67
2024/04/21 12:19:06;;;;;;;0.30;0.30;;;10.80;92.10;;;;;;5383989;26;20602;-67
2024/04/21 12:21:33;;;;;;;0.30;0.30;;;11.10;91.70;;;;;;5383812;26;20775;-67
2024/04/21 12:23:59;;;;;;;0.30;0.30;;;11.10;91.60;;;;;;5383831;26;20692;-66
2024/04/21 12:26:25;;;;;;;0.30;0.30;;;10.90;91.20;;;;;;5383448;26;20480;-66
2024/04/21 12:28:50;;;;;;;0.30;0.30;;;10.90;93.30;;;;;;5383784;26;20446;-67
2024/04/21 12:31:16;;;;;;;0.30;0.30;;;11.00;92.80;;;;;;5383706;26;20223;-66
2024/04/21 12:33:42;;;;;;;0.30;0.30;;;10.80;91.70;;;;;;5383635;26;20266;-68
2024/04/21 12:36:07;;;;;;;0.30;0.30;;;10.70;93.30;;;;;;5383113;26;20331;-67
2024/04/21 12:38:33;;;;;;;0.40;0.40;;;10.70;93.70;;;;;;5383343;26;20221;-66
2024/04/21 12:41:00;;;;;;;0.30;0.30;;;10.80;93.10;;;;;;5383278;26;20601;-67
2024/04/21 12:43:26;;;;;;;0.30;0.30;;;10.90;92.50;;;;;;5381504;26;20247;-66
2024/04/21 12:45:54;;;;;;;0.30;0.30;;;10.80;91.60;;;;;;5383143;26;20517;-66
2024/04/21 12:48:20;;;;;;;0.30;0.30;;;10.60;92.10;;;;;;5383227;26;20593;-67
2024/04/21 12:50:46;;;;;;;0.40;0.40;;;10.50;92.90;;;;;;5381726;26;20509;-66
2024/04/21 12:53:12;;;;;;;0.40;0.40;;;10.30;92.80;;;;;;5384570;26;20477;-66
2024/04/21 12:55:38;;;;;;;0.30;0.30;;;10.20;92.80;;;;;;5383004;26;20430;-66
2024/04/21 12:58:04;;;;;;;0.30;0.30;;;10.10;93.30;;;;;;5383395;26;20320;-65
2024/04/21 13:00:30;;;;;;;0.40;0.40;;;10.10;93.70;;;;;;5383308;26;20981;-65
2024/04/21 13:02:55;;;;;;;0.40;0.40;;;10.20;93.30;;;;;;5383404;26;20219;-65
2024/04/21 13:05:21;;;;;;;0.30;0.30;;;10.10;93.70;;;;;;5383396;26;20576;-68
2024/04/21 13:07:46;;;;;;;0.30;0.30;;;10.30;94.20;;;;;;5383368;26;20286;-67
2024/04/21 13:10:13;;;;;;;0.30;0.30;;;10.30;94.30;;;;;;5383121;26;20226;-67
2024/04/21 13:12:38;;;;;;;0.40;0.40;;;10.30;93.60;;;;;;5383154;26;20242;-66
2024/04/21 13:15:04;;;;;;;0.30;0.30;;;10.40;94.50;;;;;;5382868;26;20498;-66
2024/04/21 13:17:30;;;;;;;0.30;0.30;;;10.40;94.60;;;;;;5383009;26;20508;-66
2024/04/21 13:19:55;;;;;;;0.30;0.30;;;10.30;93.20;;;;;;5382563;26;20499;-66
2024/04/21 13:22:21;;;;;;;0.30;0.30;;;10.30;94.00;;;;;;5382939;26;20217;-66
2024/04/21 13:24:47;;;;;;;0.30;0.27;;;10.30;94.10;;;;;;5382256;26;20234;-66
2024/04/21 13:27:13;;;;;;;0.30;0.30;;;10.30;94.20;;;;;;5382989;26;20336;-66
2024/04/21 13:29:39;;;;;;;0.30;0.30;;;10.50;94.00;;;;;;5382911;26;20760;-66
2024/04/21 13:32:04;;;;;;;0.30;0.30;;;10.60;93.10;;;;;;5381064;26;20449;-67
2024/04/21 13:34:30;;;;;;;0.30;0.20;;;10.70;93.00;;;;;;5382468;26;21004;-66
2024/04/21 13:36:56;;;;;;;0.30;0.30;;;10.80;93.00;;;;;;5382409;26;20235;-66
2024/04/21 13:39:21;;;;;;;0.30;0.30;;;11.00;93.40;;;;;;5382647;26;20262;-65
2024/04/21 13:41:47;;;;;;;0.30;0.30;;;11.00;92.10;;;;;;5383102;26;20245;-66
2024/04/21 13:44:15;;;;;;;0.30;0.30;;;11.00;92.40;;;;;;5382644;26;20219;-67
2024/04/21 13:46:40;;;;;;;0.30;0.30;;;10.90;93.30;;;;;;5382008;26;20230;-66
2024/04/21 13:49:06;;;;;;;0.30;0.30;;;10.70;92.80;;;;;;5382443;26;20508;-66
2024/04/21 13:51:31;;;;;;;0.30;0.30;;;10.50;92.50;;;;;;5382543;26;20231;-67
2024/04/21 13:53:58;;;;;;;0.30;0.30;;;10.30;92.90;;;;;;5382521;26;20309;-67
2024/04/21 13:56:23;;;;;;;0.30;0.30;;;10.20;93.20;;;;;;5381957;26;20275;-66
2024/04/21 13:58:49;;;;;;;0.30;0.30;;;10.00;92.90;;;;;;5382174;26;20466;-66
2024/04/21 14:01:15;;;;;;;0.30;0.30;;;10.00;92.70;;;;;;5382590;26;20321;-66
2024/04/21 14:03:40;;;;;;;0.30;0.30;;;10.10;93.30;;;;;;5382326;26;20450;-66
2024/04/21 14:06:06;;;;;;;0.30;0.20;;;10.20;93.10;;;;;;5382218;26;20223;-67
2024/04/21 14:08:31;;;;;;;0.40;0.40;;;10.30;92.90;;;;;;5349639;26;20228;-66
2024/04/21 14:10:57;;;;;;;0.30;0.30;;;10.40;93.00;;;;;;5382335;26;20214;-66
2024/04/21 14:13:23;;;;;;;0.30;0.30;;;10.50;93.90;;;;;;5382475;26;20219;-67
2024/04/21 14:15:50;;;;;;;0.30;0.30;;;10.60;94.10;;;;;;5381759;26;20327;-66
2024/04/21 14:18:19;;;;;;;0.30;0.30;;;10.50;94.30;;;;;;5380477;26;20507;-66
2024/04/21 14:20:45;;;;;;;0.30;0.30;;;10.40;95.10;;;;;;5381099;26;20494;-66
2024/04/21 14:23:10;;;;;;;0.30;0.30;;;10.10;95.40;;;;;;5382248;26;20456;-68
2024/04/21 14:25:36;;;;;;;0.40;0.40;;;10.00;95.90;;;;;;5381985;26;20454;-66
2024/04/21 14:28:01;;;;;;;0.30;0.30;;;9.90;96.50;;;;;;5382151;26;20258;-66
2024/04/21 14:30:27;;;;;;;0.40;0.40;;;9.70;96.70;;;;;;5382825;26;20655;-66
2024/04/21 14:32:53;;;;;;;0.30;0.30;;;9.60;97.60;;;;;;5383307;26;20271;-67
2024/04/21 14:35:18;;;;;;;0.30;0.30;;;9.60;97.70;;;;;;5382282;26;20258;-67
2024/04/21 14:37:44;;;;;;;0.40;0.40;;;9.50;97.50;;;;;;5382233;26;20336;-66
2024/04/21 14:40:10;;;;;;;0.30;0.30;;;9.30;97.90;;;;;;5381879;26;20216;-67
2024/04/21 14:42:35;;;;;;;0.30;0.30;;;9.20;98.20;;;;;;5381972;26;20235;-66
2024/04/21 14:45:03;;;;;;;0.30;0.30;;;9.10;99.00;;;;;;5381888;26;20505;-66
2024/04/21 14:47:32;;;;;;;0.30;0.30;;;9.00;99.50;;;;;;5381854;26;20555;-67
2024/04/21 14:49:58;;;;;;;0.30;0.30;;;9.00;99.40;;;;;;5381476;26;20220;-66
2024/04/21 14:52:30;;;;;;;0.30;0.30;;;8.90;99.90;;;;;;5381595;26;20287;-65
2024/04/21 14:54:56;;;;;;;0.30;0.30;;;8.90;99.90;;;;;;5381229;26;20280;-67
2024/04/21 14:57:21;;;;;;;0.30;0.30;;;8.70;99.90;;;;;;5381367;26;20258;-66
2024/04/21 14:59:48;;;;;;;0.30;0.30;;;8.60;99.90;;;;;;5380951;26;20223;-66
2024/04/21 15:02:13;;;;;;;0.30;0.30;;;8.60;99.90;;;;;;5381600;26;20263;-66
2024/04/21 15:04:39;;;;;;;0.30;0.30;;;8.60;99.90;;;;;;5381339;26;20215;-66
2024/04/21 15:07:04;;;;;;;0.30;0.30;;;8.60;99.90;;;;;;5381107;26;20236;-66
2024/04/21 15:09:30;;;;;;;0.30;0.30;;;8.60;99.90;;;;;;5381512;26;20223;-66
2024/04/21 15:11:55;;;;;;;0.40;0.40;;;8.60;99.90;;;;;;5381698;26;20220;-66
2024/04/21 15:14:21;;;;;;;0.40;0.40;;;8.70;99.90;;;;;;5381324;26;20460;-66
2024/04/21 15:16:47;;;;;;;0.33;0.33;;;8.80;99.90;;;;;;5380691;26;20326;-66
2024/04/21 15:19:12;;;;;;;0.30;0.30;;;8.80;99.90;;;;;;5380375;26;20806;-65
2024/04/21 15:21:38;;;;;;;0.50;0.50;;;8.90;99.90;;;;;;5383749;26;20282;-66
2024/04/21 15:24:04;;;;;;;0.30;0.30;;;9.00;99.90;;;;;;5384584;26;20215;-66
2024/04/21 15:26:29;;;;;;;0.30;0.30;;;9.10;99.90;;;;;;5384124;26;20232;-66
2024/04/21 15:28:55;;;;;;;0.30;0.30;;;9.20;99.90;;;;;;5384487;26;20254;-66
2024/04/21 15:31:20;;;;;;;0.30;0.30;;;9.10;99.90;;;;;;5384308;26;20710;-67
2024/04/21 15:33:49;;;;;;;0.30;0.30;;;9.00;99.90;;;;;;5384191;26;20315;-66
2024/04/21 15:36:15;;;;;;;0.30;0.30;;;8.90;99.90;;;;;;5383742;26;20275;-65
2024/04/21 15:38:41;;;;;;;0.40;0.40;;;9.00;99.90;;;;;;5384271;26;20223;-66
2024/04/21 15:41:07;;;;;;;0.50;0.50;;;8.90;99.90;;;;;;5382495;26;20999;-66
2024/04/21 15:43:32;;;;;;;0.30;0.30;;;8.80;99.90;;;;;;5384124;26;20220;-66
2024/04/21 15:45:58;;;;;;;0.30;0.30;;;8.70;99.90;;;;;;5383919;26;20228;-67
2024/04/21 15:48:23;;;;;;;0.40;0.40;;;8.60;99.90;;;;;;5384234;26;20311;-66
2024/04/21 15:50:50;;;;;;;0.30;0.30;;;8.50;99.90;;;;;;5384487;26;20329;-66
2024/04/21 15:53:16;;;;;;;0.30;0.30;;;8.40;99.90;;;;;;5383873;26;20312;-66
2024/04/21 15:55:42;;;;;;;0.30;0.30;;;8.30;99.90;;;;;;5383807;26;20720;-66
2024/04/21 15:58:08;;;;;;;0.30;0.30;;;8.30;99.90;;;;;;5381898;26;20571;-66
2024/04/21 16:00:37;;;;;;;0.47;0.47;;;8.20;99.90;;;;;;5383970;26;20225;-66
2024/04/21 16:03:03;;;;;;;0.30;0.30;;;8.20;99.90;;;;;;5383741;26;20232;-66
2024/04/21 16:05:28;;;;;;;0.40;0.40;;;8.20;99.90;;;;;;5383399;26;20216;-68
2024/04/21 16:07:54;;;;;;;0.40;0.40;;;8.20;99.90;;;;;;5382130;26;20252;-66
2024/04/21 16:10:19;;;;;;;0.30;0.30;;;8.10;99.90;;;;;;5382152;26;20321;-66
2024/04/21 16:12:45;;;;;;;0.33;0.33;;;8.00;99.90;;;;;;5383915;26;20224;-65
2024/04/21 16:15:13;;;;;;;0.40;0.40;;;7.90;99.90;;;;;;5383539;26;20325;-65
2024/04/21 16:17:38;;;;;;;0.35;0.35;;;7.80;99.90;;;;;;5383578;26;20275;-66
2024/04/21 16:20:04;;;;;;;0.30;0.30;;;7.70;99.90;;;;;;5383310;26;20219;-66
2024/04/21 16:22:30;;;;;;;0.40;0.40;;;7.50;99.90;;;;;;5383747;26;20220;-66
2024/04/21 16:24:55;;;;;;;0.33;0.33;;;7.50;99.90;;;;;;5383542;26;20254;-65
2024/04/21 16:27:21;;;;;;;0.30;0.30;;;7.50;99.90;;;;;;5383616;26;20714;-65
2024/04/21 16:29:47;;;;;;;0.30;0.30;;;7.50;99.90;;;;;;5383881;26;20219;-66
2024/04/21 16:32:12;;;;;;;0.30;0.30;;;7.40;99.90;;;;;;5383453;26;20215;-66
2024/04/21 16:34:38;;;;;;;0.30;0.30;;;7.30;99.90;;;;;;5383459;26;20255;-66
2024/04/21 16:37:04;;;;;;;0.30;0.30;;;7.10;99.90;;;;;;5383783;26;20232;-66
2024/04/21 16:39:30;;;;;;;0.30;0.30;;;7.00;99.90;;;;;;5383794;26;20490;-66
2024/04/21 16:41:56;;;;;;;0.30;0.30;;;7.00;99.90;;;;;;5383656;26;20523;-67
2024/04/21 16:44:22;;;;;;;0.33;0.33;;;7.00;99.90;;;;;;5383499;26;20450;-66
2024/04/21 16:46:54;;;;;;;0.40;0.40;;;7.10;99.90;;;;;;5383117;26;20438;-66
2024/04/21 16:49:24;;;;;;;0.30;0.30;;;7.10;99.90;;;;;;5383800;26;20451;-66
2024/04/21 16:51:50;;;;;;;0.40;0.40;;;7.00;99.90;;;;;;5383903;26;20223;-66
2024/04/21 16:54:17;;;;;;;0.30;0.30;;;6.80;99.90;;;;;;5383095;26;20745;-66